Terminal Aerodrome Forecast
Issued by NWS Lake Charles, LA

Home | Current Version | Previous Version | Text Only | Print | Product List | Glossary On
Versions: 1 2 3 4 5 6 7 8 9 10 11 12 13 14 15
590
FTUS44 KLCH 231405 AAA
TAFLCH
TAF AMD
KLCH 231405Z 2314/2412 35014KT P6SM SCT025
      TEMPO 2314/2316 BKN025
     FM231600 35014G22KT P6SM SCT035
     FM240000 01008KT P6SM SKC=

USA.gov is the U.S. government's official web portal to all federal, state and local government web resources and services.